sensor_id;sensor_type;location;lat;lon;timestamp;P1;durP1;ratioP1;P2;durP2;ratioP2
37455;SDS011;23316;50.718;7.328;2023-06-24T00:02:24;6.00;;;4.15;;
37455;SDS011;23316;50.718;7.328;2023-06-24T00:04:52;5.40;;;4.20;;
37455;SDS011;23316;50.718;7.328;2023-06-24T00:07:20;5.85;;;4.60;;
37455;SDS011;23316;50.718;7.328;2023-06-24T00:09:47;4.97;;;4.10;;
37455;SDS011;23316;50.718;7.328;2023-06-24T00:12:15;6.32;;;4.25;;
37455;SDS011;23316;50.718;7.328;2023-06-24T00:14:44;4.93;;;4.25;;
37455;SDS011;23316;50.718;7.328;2023-06-24T00:17:12;5.78;;;4.15;;
37455;SDS011;23316;50.718;7.328;2023-06-24T00:19:42;6.32;;;4.65;;
37455;SDS011;23316;50.718;7.328;2023-06-24T00:22:11;5.40;;;4.40;;
37455;SDS011;23316;50.718;7.328;2023-06-24T00:24:39;7.95;;;5.00;;
37455;SDS011;23316;50.718;7.328;2023-06-24T00:27:08;6.22;;;4.70;;
37455;SDS011;23316;50.718;7.328;2023-06-24T00:29:35;5.57;;;4.55;;
37455;SDS011;23316;50.718;7.328;2023-06-24T00:32:03;6.65;;;5.22;;
37455;SDS011;23316;50.718;7.328;2023-06-24T00:34:30;5.28;;;4.22;;
37455;SDS011;23316;50.718;7.328;2023-06-24T00:36:57;6.63;;;5.03;;
37455;SDS011;23316;50.718;7.328;2023-06-24T00:39:26;6.32;;;4.57;;
37455;SDS011;23316;50.718;7.328;2023-06-24T00:41:53;6.75;;;4.85;;
37455;SDS011;23316;50.718;7.328;2023-06-24T00:44:21;7.88;;;4.72;;
37455;SDS011;23316;50.718;7.328;2023-06-24T00:46:48;5.97;;;4.82;;
37455;SDS011;23316;50.718;7.328;2023-06-24T00:49:15;5.78;;;4.50;;
37455;SDS011;23316;50.718;7.328;2023-06-24T00:51:43;8.13;;;5.28;;
37455;SDS011;23316;50.718;7.328;2023-06-24T00:54:15;5.25;;;4.43;;
37455;SDS011;23316;50.718;7.328;2023-06-24T00:56:45;6.97;;;5.25;;
37455;SDS011;23316;50.718;7.328;2023-06-24T00:59:13;5.25;;;4.40;;
37455;SDS011;23316;50.718;7.328;2023-06-24T01:01:42;6.18;;;4.90;;
37455;SDS011;23316;50.718;7.328;2023-06-24T01:04:11;6.35;;;4.88;;
37455;SDS011;23316;50.718;7.328;2023-06-24T01:06:38;5.78;;;4.75;;
37455;SDS011;23316;50.718;7.328;2023-06-24T01:09:09;7.07;;;5.55;;
37455;SDS011;23316;50.718;7.328;2023-06-24T01:11:36;6.40;;;5.00;;
37455;SDS011;23316;50.718;7.328;2023-06-24T01:14:05;6.03;;;4.75;;
37455;SDS011;23316;50.718;7.328;2023-06-24T01:16:33;7.35;;;4.85;;
37455;SDS011;23316;50.718;7.328;2023-06-24T01:19:09;7.00;;;4.88;;
37455;SDS011;23316;50.718;7.328;2023-06-24T01:21:59;5.82;;;5.22;;
37455;SDS011;23316;50.718;7.328;2023-06-24T01:24:41;6.25;;;5.10;;
37455;SDS011;23316;50.718;7.328;2023-06-24T01:27:24;8.25;;;5.25;;
37455;SDS011;23316;50.718;7.328;2023-06-24T01:30:17;10.50;;;5.32;;
37455;SDS011;23316;50.718;7.328;2023-06-24T01:33:04;7.78;;;5.47;;
37455;SDS011;23316;50.718;7.328;2023-06-24T01:35:35;7.65;;;5.20;;
37455;SDS011;23316;50.718;7.328;2023-06-24T01:38:07;7.07;;;5.32;;
37455;SDS011;23316;50.718;7.328;2023-06-24T01:40:37;8.20;;;5.32;;
37455;SDS011;23316;50.718;7.328;2023-06-24T01:43:08;6.95;;;5.93;;
37455;SDS011;23316;50.718;7.328;2023-06-24T01:45:37;5.47;;;4.53;;
37455;SDS011;23316;50.718;7.328;2023-06-24T01:48:11;7.18;;;5.07;;
37455;SDS011;23316;50.718;7.328;2023-06-24T01:50:42;11.00;;;5.43;;
37455;SDS011;23316;50.718;7.328;2023-06-24T01:53:12;8.10;;;5.30;;
37455;SDS011;23316;50.718;7.328;2023-06-24T01:55:40;8.18;;;5.15;;
37455;SDS011;23316;50.718;7.328;2023-06-24T01:58:09;7.63;;;6.10;;
37455;SDS011;23316;50.718;7.328;2023-06-24T02:00:38;6.18;;;4.95;;
37455;SDS011;23316;50.718;7.328;2023-06-24T02:03:06;7.38;;;5.93;;
37455;SDS011;23316;50.718;7.328;2023-06-24T02:05:36;8.55;;;5.30;;
37455;SDS011;23316;50.718;7.328;2023-06-24T02:08:06;6.40;;;4.97;;
37455;SDS011;23316;50.718;7.328;2023-06-24T02:10:36;7.55;;;5.55;;
37455;SDS011;23316;50.718;7.328;2023-06-24T02:13:04;10.18;;;5.97;;
37455;SDS011;23316;50.718;7.328;2023-06-24T02:15:34;7.55;;;5.45;;
37455;SDS011;23316;50.718;7.328;2023-06-24T02:18:04;6.53;;;5.20;;
37455;SDS011;23316;50.718;7.328;2023-06-24T02:20:36;6.95;;;5.55;;
37455;SDS011;23316;50.718;7.328;2023-06-24T02:23:05;8.38;;;5.63;;
37455;SDS011;23316;50.718;7.328;2023-06-24T02:25:35;7.90;;;5.10;;
37455;SDS011;23316;50.718;7.328;2023-06-24T02:28:05;6.78;;;5.70;;
37455;SDS011;23316;50.718;7.328;2023-06-24T02:30:34;6.65;;;5.22;;
37455;SDS011;23316;50.718;7.328;2023-06-24T02:33:02;7.40;;;5.70;;
37455;SDS011;23316;50.718;7.328;2023-06-24T02:35:29;7.53;;;5.80;;
37455;SDS011;23316;50.718;7.328;2023-06-24T02:37:58;8.15;;;6.13;;
37455;SDS011;23316;50.718;7.328;2023-06-24T02:40:25;9.25;;;5.90;;
37455;SDS011;23316;50.718;7.328;2023-06-24T02:42:53;8.07;;;5.70;;
37455;SDS011;23316;50.718;7.328;2023-06-24T02:45:20;9.30;;;6.35;;
37455;SDS011;23316;50.718;7.328;2023-06-24T02:47:48;8.90;;;6.25;;
37455;SDS011;23316;50.718;7.328;2023-06-24T02:50:20;8.95;;;5.72;;
37455;SDS011;23316;50.718;7.328;2023-06-24T02:52:49;7.05;;;5.80;;
37455;SDS011;23316;50.718;7.328;2023-06-24T02:55:19;6.65;;;5.18;;
37455;SDS011;23316;50.718;7.328;2023-06-24T02:57:47;8.55;;;6.63;;
37455;SDS011;23316;50.718;7.328;2023-06-24T03:00:16;6.93;;;5.97;;
37455;SDS011;23316;50.718;7.328;2023-06-24T03:02:44;8.23;;;5.95;;
37455;SDS011;23316;50.718;7.328;2023-06-24T03:05:13;11.23;;;5.95;;
37455;SDS011;23316;50.718;7.328;2023-06-24T03:07:44;7.35;;;5.15;;
37455;SDS011;23316;50.718;7.328;2023-06-24T03:10:12;7.60;;;5.93;;
37455;SDS011;23316;50.718;7.328;2023-06-24T03:12:42;8.35;;;5.90;;
37455;SDS011;23316;50.718;7.328;2023-06-24T03:15:09;9.10;;;6.07;;
37455;SDS011;23316;50.718;7.328;2023-06-24T03:17:36;8.43;;;6.00;;
37455;SDS011;23316;50.718;7.328;2023-06-24T03:20:04;7.35;;;5.45;;
37455;SDS011;23316;50.718;7.328;2023-06-24T03:22:33;9.70;;;6.45;;
37455;SDS011;23316;50.718;7.328;2023-06-24T03:25:00;7.00;;;5.57;;
37455;SDS011;23316;50.718;7.328;2023-06-24T03:27:28;7.80;;;5.63;;
37455;SDS011;23316;50.718;7.328;2023-06-24T03:29:58;6.88;;;5.75;;
37455;SDS011;23316;50.718;7.328;2023-06-24T03:32:25;7.10;;;5.85;;
37455;SDS011;23316;50.718;7.328;2023-06-24T03:34:52;7.88;;;6.32;;
37455;SDS011;23316;50.718;7.328;2023-06-24T03:37:19;7.40;;;5.90;;
37455;SDS011;23316;50.718;7.328;2023-06-24T03:39:47;6.90;;;6.00;;
37455;SDS011;23316;50.718;7.328;2023-06-24T03:42:14;7.28;;;5.78;;
37455;SDS011;23316;50.718;7.328;2023-06-24T03:44:41;13.48;;;6.32;;
37455;SDS011;23316;50.718;7.328;2023-06-24T03:47:10;17.02;;;9.63;;
37455;SDS011;23316;50.718;7.328;2023-06-24T03:49:37;10.55;;;7.43;;
37455;SDS011;23316;50.718;7.328;2023-06-24T03:52:05;11.65;;;8.30;;
37455;SDS011;23316;50.718;7.328;2023-06-24T03:54:34;9.38;;;7.15;;
37455;SDS011;23316;50.718;7.328;2023-06-24T03:57:01;9.93;;;6.63;;
37455;SDS011;23316;50.718;7.328;2023-06-24T03:59:29;7.30;;;5.97;;
37455;SDS011;23316;50.718;7.328;2023-06-24T04:01:56;10.10;;;6.25;;
37455;SDS011;23316;50.718;7.328;2023-06-24T04:04:25;6.93;;;6.20;;
37455;SDS011;23316;50.718;7.328;2023-06-24T04:06:52;6.53;;;5.65;;
37455;SDS011;23316;50.718;7.328;2023-06-24T04:09:19;9.85;;;6.40;;
37455;SDS011;23316;50.718;7.328;2023-06-24T04:11:47;9.93;;;6.60;;
37455;SDS011;23316;50.718;7.328;2023-06-24T04:14:15;8.07;;;5.90;;
37455;SDS011;23316;50.718;7.328;2023-06-24T04:16:42;8.70;;;6.53;;
37455;SDS011;23316;50.718;7.328;2023-06-24T04:19:09;8.50;;;6.57;;
37455;SDS011;23316;50.718;7.328;2023-06-24T04:21:38;7.50;;;5.85;;
37455;SDS011;23316;50.718;7.328;2023-06-24T04:24:05;9.60;;;5.90;;
37455;SDS011;23316;50.718;7.328;2023-06-24T04:26:32;8.80;;;6.10;;
37455;SDS011;23316;50.718;7.328;2023-06-24T04:29:00;7.90;;;6.43;;
37455;SDS011;23316;50.718;7.328;2023-06-24T04:31:28;7.68;;;5.75;;
37455;SDS011;23316;50.718;7.328;2023-06-24T04:33:55;8.30;;;6.20;;
37455;SDS011;23316;50.718;7.328;2023-06-24T04:36:23;7.93;;;6.50;;
37455;SDS011;23316;50.718;7.328;2023-06-24T04:38:52;10.73;;;6.10;;
37455;SDS011;23316;50.718;7.328;2023-06-24T04:41:19;7.80;;;5.60;;
37455;SDS011;23316;50.718;7.328;2023-06-24T04:43:47;8.65;;;6.70;;
37455;SDS011;23316;50.718;7.328;2023-06-24T04:46:14;8.98;;;6.63;;
37455;SDS011;23316;50.718;7.328;2023-06-24T04:48:42;9.80;;;7.00;;
37455;SDS011;23316;50.718;7.328;2023-06-24T04:51:09;7.20;;;6.15;;
37455;SDS011;23316;50.718;7.328;2023-06-24T04:53:37;7.88;;;6.35;;
37455;SDS011;23316;50.718;7.328;2023-06-24T04:56:06;7.65;;;5.93;;
37455;SDS011;23316;50.718;7.328;2023-06-24T04:58:34;10.73;;;6.53;;
37455;SDS011;23316;50.718;7.328;2023-06-24T05:01:01;8.70;;;6.53;;
37455;SDS011;23316;50.718;7.328;2023-06-24T05:03:29;11.38;;;7.20;;
37455;SDS011;23316;50.718;7.328;2023-06-24T05:05:57;9.43;;;6.50;;
37455;SDS011;23316;50.718;7.328;2023-06-24T05:08:24;8.25;;;6.35;;
37455;SDS011;23316;50.718;7.328;2023-06-24T05:10:52;8.95;;;6.15;;
37455;SDS011;23316;50.718;7.328;2023-06-24T05:13:21;7.93;;;6.43;;
37455;SDS011;23316;50.718;7.328;2023-06-24T05:15:49;8.35;;;5.88;;
37455;SDS011;23316;50.718;7.328;2023-06-24T05:18:17;10.32;;;6.20;;
37455;SDS011;23316;50.718;7.328;2023-06-24T05:20:45;10.05;;;6.30;;
37455;SDS011;23316;50.718;7.328;2023-06-24T05:23:12;7.97;;;6.38;;
37455;SDS011;23316;50.718;7.328;2023-06-24T05:25:40;9.90;;;6.20;;
37455;SDS011;23316;50.718;7.328;2023-06-24T05:28:08;6.78;;;5.65;;
37455;SDS011;23316;50.718;7.328;2023-06-24T05:30:36;8.75;;;6.63;;
37455;SDS011;23316;50.718;7.328;2023-06-24T05:33:04;8.55;;;6.55;;
37455;SDS011;23316;50.718;7.328;2023-06-24T05:35:32;8.02;;;5.90;;
37455;SDS011;23316;50.718;7.328;2023-06-24T05:38:00;7.57;;;6.10;;
37455;SDS011;23316;50.718;7.328;2023-06-24T05:40:27;7.97;;;6.07;;
37455;SDS011;23316;50.718;7.328;2023-06-24T05:42:55;7.93;;;5.53;;
37455;SDS011;23316;50.718;7.328;2023-06-24T05:45:22;9.25;;;6.32;;
37455;SDS011;23316;50.718;7.328;2023-06-24T05:47:51;6.95;;;5.90;;
37455;SDS011;23316;50.718;7.328;2023-06-24T05:50:19;9.65;;;7.07;;
37455;SDS011;23316;50.718;7.328;2023-06-24T05:52:47;7.03;;;5.95;;
37455;SDS011;23316;50.718;7.328;2023-06-24T05:55:14;9.20;;;6.25;;
37455;SDS011;23316;50.718;7.328;2023-06-24T05:57:42;8.10;;;6.55;;
37455;SDS011;23316;50.718;7.328;2023-06-24T06:00:10;8.93;;;6.35;;
37455;SDS011;23316;50.718;7.328;2023-06-24T06:02:38;11.98;;;6.78;;
37455;SDS011;23316;50.718;7.328;2023-06-24T06:05:07;11.30;;;7.90;;
37455;SDS011;23316;50.718;7.328;2023-06-24T06:07:35;9.45;;;6.57;;
37455;SDS011;23316;50.718;7.328;2023-06-24T06:10:04;10.55;;;7.10;;
37455;SDS011;23316;50.718;7.328;2023-06-24T06:12:32;9.52;;;7.53;;
37455;SDS011;23316;50.718;7.328;2023-06-24T06:14:59;9.18;;;7.75;;
37455;SDS011;23316;50.718;7.328;2023-06-24T06:17:26;9.88;;;7.18;;
37455;SDS011;23316;50.718;7.328;2023-06-24T06:19:53;10.15;;;6.95;;
37455;SDS011;23316;50.718;7.328;2023-06-24T06:22:22;10.35;;;8.13;;
37455;SDS011;23316;50.718;7.328;2023-06-24T06:24:49;13.80;;;8.13;;
37455;SDS011;23316;50.718;7.328;2023-06-24T06:27:16;13.60;;;9.93;;
37455;SDS011;23316;50.718;7.328;2023-06-24T06:29:44;11.63;;;7.95;;
37455;SDS011;23316;50.718;7.328;2023-06-24T06:32:11;10.45;;;7.32;;
37455;SDS011;23316;50.718;7.328;2023-06-24T06:34:38;10.05;;;7.65;;
37455;SDS011;23316;50.718;7.328;2023-06-24T06:37:05;10.38;;;7.45;;
37455;SDS011;23316;50.718;7.328;2023-06-24T06:39:34;11.38;;;8.25;;
37455;SDS011;23316;50.718;7.328;2023-06-24T06:42:01;10.60;;;8.02;;
37455;SDS011;23316;50.718;7.328;2023-06-24T06:44:29;12.32;;;8.43;;
37455;SDS011;23316;50.718;7.328;2023-06-24T06:46:56;8.15;;;6.93;;
37455;SDS011;23316;50.718;7.328;2023-06-24T06:49:23;11.75;;;7.68;;
37455;SDS011;23316;50.718;7.328;2023-06-24T06:51:51;11.38;;;7.68;;
37455;SDS011;23316;50.718;7.328;2023-06-24T06:54:20;9.68;;;6.97;;
37455;SDS011;23316;50.718;7.328;2023-06-24T06:56:49;9.27;;;7.53;;
37455;SDS011;23316;50.718;7.328;2023-06-24T06:59:16;11.60;;;8.43;;
37455;SDS011;23316;50.718;7.328;2023-06-24T07:01:43;12.75;;;7.88;;
37455;SDS011;23316;50.718;7.328;2023-06-24T07:04:10;13.00;;;8.23;;
37455;SDS011;23316;50.718;7.328;2023-06-24T07:06:37;12.93;;;7.80;;
37455;SDS011;23316;50.718;7.328;2023-06-24T07:09:05;10.23;;;7.60;;
37455;SDS011;23316;50.718;7.328;2023-06-24T07:11:33;15.05;;;9.55;;
37455;SDS011;23316;50.718;7.328;2023-06-24T07:14:01;14.90;;;10.98;;
37455;SDS011;23316;50.718;7.328;2023-06-24T07:16:30;18.80;;;11.57;;
37455;SDS011;23316;50.718;7.328;2023-06-24T07:18:57;15.20;;;9.77;;
37455;SDS011;23316;50.718;7.328;2023-06-24T07:21:24;13.18;;;8.95;;
37455;SDS011;23316;50.718;7.328;2023-06-24T07:23:51;18.92;;;12.35;;
37455;SDS011;23316;50.718;7.328;2023-06-24T07:26:19;19.98;;;11.38;;
37455;SDS011;23316;50.718;7.328;2023-06-24T07:28:47;16.05;;;10.45;;
37455;SDS011;23316;50.718;7.328;2023-06-24T07:31:16;20.67;;;11.07;;
37455;SDS011;23316;50.718;7.328;2023-06-24T07:33:43;15.00;;;11.48;;
37455;SDS011;23316;50.718;7.328;2023-06-24T07:36:10;16.02;;;11.57;;
37455;SDS011;23316;50.718;7.328;2023-06-24T07:38:39;20.05;;;12.55;;
37455;SDS011;23316;50.718;7.328;2023-06-24T07:41:06;18.92;;;12.23;;
37455;SDS011;23316;50.718;7.328;2023-06-24T07:43:33;21.50;;;12.65;;
37455;SDS011;23316;50.718;7.328;2023-06-24T07:46:00;23.13;;;12.88;;
37455;SDS011;23316;50.718;7.328;2023-06-24T07:48:30;18.85;;;13.25;;
37455;SDS011;23316;50.718;7.328;2023-06-24T07:50:57;14.52;;;10.85;;
37455;SDS011;23316;50.718;7.328;2023-06-24T07:53:25;22.23;;;13.88;;
37455;SDS011;23316;50.718;7.328;2023-06-24T07:55:52;19.60;;;13.15;;
37455;SDS011;23316;50.718;7.328;2023-06-24T07:58:19;19.95;;;12.77;;
37455;SDS011;23316;50.718;7.328;2023-06-24T08:00:46;17.30;;;11.13;;
37455;SDS011;23316;50.718;7.328;2023-06-24T08:03:13;20.17;;;12.65;;
37455;SDS011;23316;50.718;7.328;2023-06-24T08:05:42;18.75;;;11.68;;
37455;SDS011;23316;50.718;7.328;2023-06-24T08:08:10;18.02;;;11.60;;
37455;SDS011;23316;50.718;7.328;2023-06-24T08:10:37;23.27;;;12.40;;
37455;SDS011;23316;50.718;7.328;2023-06-24T08:13:04;15.65;;;10.13;;
37455;SDS011;23316;50.718;7.328;2023-06-24T08:15:31;18.05;;;11.60;;
37455;SDS011;23316;50.718;7.328;2023-06-24T08:17:59;19.50;;;10.52;;
37455;SDS011;23316;50.718;7.328;2023-06-24T08:20:27;17.55;;;11.30;;
37455;SDS011;23316;50.718;7.328;2023-06-24T08:22:55;19.27;;;10.35;;
37455;SDS011;23316;50.718;7.328;2023-06-24T08:25:23;20.05;;;11.07;;
37455;SDS011;23316;50.718;7.328;2023-06-24T08:27:51;20.73;;;12.05;;
37455;SDS011;23316;50.718;7.328;2023-06-24T08:30:18;16.45;;;11.35;;
37455;SDS011;23316;50.718;7.328;2023-06-24T08:32:46;16.45;;;10.10;;
37455;SDS011;23316;50.718;7.328;2023-06-24T08:35:14;15.15;;;10.73;;
37455;SDS011;23316;50.718;7.328;2023-06-24T08:37:42;14.13;;;9.10;;
37455;SDS011;23316;50.718;7.328;2023-06-24T08:40:12;17.60;;;12.10;;
37455;SDS011;23316;50.718;7.328;2023-06-24T08:42:40;17.52;;;11.30;;
37455;SDS011;23316;50.718;7.328;2023-06-24T08:45:07;17.13;;;11.55;;
37455;SDS011;23316;50.718;7.328;2023-06-24T08:47:35;12.20;;;9.07;;
37455;SDS011;23316;50.718;7.328;2023-06-24T08:50:04;15.38;;;8.88;;
37455;SDS011;23316;50.718;7.328;2023-06-24T08:52:35;13.82;;;8.65;;
37455;SDS011;23316;50.718;7.328;2023-06-24T08:55:04;11.63;;;7.32;;
37455;SDS011;23316;50.718;7.328;2023-06-24T08:57:38;13.40;;;9.07;;
37455;SDS011;23316;50.718;7.328;2023-06-24T09:00:06;13.90;;;8.73;;
37455;SDS011;23316;50.718;7.328;2023-06-24T09:02:36;13.38;;;7.85;;
37455;SDS011;23316;50.718;7.328;2023-06-24T09:05:04;11.73;;;7.45;;
37455;SDS011;23316;50.718;7.328;2023-06-24T09:07:31;12.43;;;8.50;;
37455;SDS011;23316;50.718;7.328;2023-06-24T09:09:59;14.23;;;9.85;;
37455;SDS011;23316;50.718;7.328;2023-06-24T09:12:27;12.35;;;8.35;;
37455;SDS011;23316;50.718;7.328;2023-06-24T09:14:55;14.23;;;8.05;;
37455;SDS011;23316;50.718;7.328;2023-06-24T09:17:23;11.40;;;7.95;;
37455;SDS011;23316;50.718;7.328;2023-06-24T09:19:50;16.08;;;8.57;;
37455;SDS011;23316;50.718;7.328;2023-06-24T09:22:18;14.98;;;9.27;;
37455;SDS011;23316;50.718;7.328;2023-06-24T09:24:46;12.45;;;7.65;;
37455;SDS011;23316;50.718;7.328;2023-06-24T09:27:14;13.27;;;7.53;;
37455;SDS011;23316;50.718;7.328;2023-06-24T09:29:45;13.93;;;9.45;;
37455;SDS011;23316;50.718;7.328;2023-06-24T09:32:14;18.02;;;9.57;;
37455;SDS011;23316;50.718;7.328;2023-06-24T09:34:41;14.68;;;10.07;;
37455;SDS011;23316;50.718;7.328;2023-06-24T09:37:09;12.98;;;9.02;;
37455;SDS011;23316;50.718;7.328;2023-06-24T09:39:39;14.00;;;9.18;;
37455;SDS011;23316;50.718;7.328;2023-06-24T09:42:07;15.63;;;9.85;;
37455;SDS011;23316;50.718;7.328;2023-06-24T09:44:36;11.18;;;7.28;;
37455;SDS011;23316;50.718;7.328;2023-06-24T09:47:03;13.75;;;7.65;;
37455;SDS011;23316;50.718;7.328;2023-06-24T09:49:32;11.98;;;8.38;;
37455;SDS011;23316;50.718;7.328;2023-06-24T09:51:59;11.32;;;7.20;;
37455;SDS011;23316;50.718;7.328;2023-06-24T09:54:29;7.43;;;5.80;;
37455;SDS011;23316;50.718;7.328;2023-06-24T09:56:59;9.93;;;6.78;;
37455;SDS011;23316;50.718;7.328;2023-06-24T09:59:28;8.35;;;6.25;;
37455;SDS011;23316;50.718;7.328;2023-06-24T10:01:58;9.43;;;6.65;;
37455;SDS011;23316;50.718;7.328;2023-06-24T10:04:27;11.52;;;6.15;;
37455;SDS011;23316;50.718;7.328;2023-06-24T10:06:56;8.18;;;5.93;;
37455;SDS011;23316;50.718;7.328;2023-06-24T10:09:24;11.13;;;7.05;;
37455;SDS011;23316;50.718;7.328;2023-06-24T10:11:51;10.65;;;7.78;;
37455;SDS011;23316;50.718;7.328;2023-06-24T10:14:19;12.15;;;6.18;;
37455;SDS011;23316;50.718;7.328;2023-06-24T10:16:46;13.15;;;8.63;;
37455;SDS011;23316;50.718;7.328;2023-06-24T10:19:18;9.70;;;6.47;;
37455;SDS011;23316;50.718;7.328;2023-06-24T10:27:01;8.15;;;6.35;;
37455;SDS011;23316;50.718;7.328;2023-06-24T10:29:33;10.00;;;6.18;;
37455;SDS011;23316;50.718;7.328;2023-06-24T10:32:02;8.23;;;6.10;;
37455;SDS011;23316;50.718;7.328;2023-06-24T10:34:39;8.77;;;6.20;;
37455;SDS011;23316;50.718;7.328;2023-06-24T10:37:09;10.00;;;6.07;;
37455;SDS011;23316;50.718;7.328;2023-06-24T10:39:46;6.85;;;5.32;;
37455;SDS011;23316;50.718;7.328;2023-06-24T10:45:13;7.22;;;5.50;;
37455;SDS011;23316;50.718;7.328;2023-06-24T10:47:43;7.13;;;5.28;;
37455;SDS011;23316;50.718;7.328;2023-06-24T10:50:12;13.25;;;5.43;;
37455;SDS011;23316;50.718;7.328;2023-06-24T10:52:41;9.07;;;5.78;;
37455;SDS011;23316;50.718;7.328;2023-06-24T10:55:11;8.18;;;5.18;;
37455;SDS011;23316;50.718;7.328;2023-06-24T10:57:41;6.13;;;5.10;;
37455;SDS011;23316;50.718;7.328;2023-06-24T11:00:09;7.10;;;5.03;;
37455;SDS011;23316;50.718;7.328;2023-06-24T11:02:37;6.85;;;4.82;;
37455;SDS011;23316;50.718;7.328;2023-06-24T11:05:04;7.38;;;4.97;;
37455;SDS011;23316;50.718;7.328;2023-06-24T11:07:32;8.25;;;5.35;;
37455;SDS011;23316;50.718;7.328;2023-06-24T11:10:01;6.88;;;4.80;;
37455;SDS011;23316;50.718;7.328;2023-06-24T11:12:32;7.13;;;4.50;;
37455;SDS011;23316;50.718;7.328;2023-06-24T11:15:01;7.93;;;5.25;;
37455;SDS011;23316;50.718;7.328;2023-06-24T11:17:29;5.78;;;4.80;;
37455;SDS011;23316;50.718;7.328;2023-06-24T11:19:57;8.43;;;5.10;;
37455;SDS011;23316;50.718;7.328;2023-06-24T11:22:25;7.18;;;4.95;;
37455;SDS011;23316;50.718;7.328;2023-06-24T11:24:54;5.95;;;5.00;;
37455;SDS011;23316;50.718;7.328;2023-06-24T11:27:24;5.82;;;4.63;;
37455;SDS011;23316;50.718;7.328;2023-06-24T11:29:54;7.47;;;5.00;;
37455;SDS011;23316;50.718;7.328;2023-06-24T11:32:24;6.00;;;4.78;;
37455;SDS011;23316;50.718;7.328;2023-06-24T11:34:51;12.90;;;5.05;;
37455;SDS011;23316;50.718;7.328;2023-06-24T11:37:18;7.88;;;5.47;;
37455;SDS011;23316;50.718;7.328;2023-06-24T11:39:52;6.78;;;4.80;;
37455;SDS011;23316;50.718;7.328;2023-06-24T11:42:28;7.50;;;4.38;;
37455;SDS011;23316;50.718;7.328;2023-06-24T11:45:00;6.40;;;4.72;;
37455;SDS011;23316;50.718;7.328;2023-06-24T11:47:30;4.50;;;4.00;;
37455;SDS011;23316;50.718;7.328;2023-06-24T11:49:59;5.47;;;4.30;;
37455;SDS011;23316;50.718;7.328;2023-06-24T11:52:40;6.63;;;5.05;;
37455;SDS011;23316;50.718;7.328;2023-06-24T11:55:12;7.18;;;4.70;;
37455;SDS011;23316;50.718;7.328;2023-06-24T11:57:52;5.20;;;4.40;;
37455;SDS011;23316;50.718;7.328;2023-06-24T12:00:23;5.45;;;4.28;;
37455;SDS011;23316;50.718;7.328;2023-06-24T12:02:54;6.63;;;4.65;;
37455;SDS011;23316;50.718;7.328;2023-06-24T12:05:22;6.10;;;4.25;;
37455;SDS011;23316;50.718;7.328;2023-06-24T12:07:53;7.10;;;4.30;;
37455;SDS011;23316;50.718;7.328;2023-06-24T12:10:21;7.05;;;4.95;;
37455;SDS011;23316;50.718;7.328;2023-06-24T12:12:49;13.60;;;5.00;;
37455;SDS011;23316;50.718;7.328;2023-06-24T12:15:16;6.95;;;5.20;;
37455;SDS011;23316;50.718;7.328;2023-06-24T12:17:45;5.88;;;4.35;;
37455;SDS011;23316;50.718;7.328;2023-06-24T12:20:12;9.38;;;4.70;;
37455;SDS011;23316;50.718;7.328;2023-06-24T12:22:40;5.18;;;4.55;;
37455;SDS011;23316;50.718;7.328;2023-06-24T12:25:08;7.15;;;4.53;;
37455;SDS011;23316;50.718;7.328;2023-06-24T12:27:36;7.78;;;4.97;;
37455;SDS011;23316;50.718;7.328;2023-06-24T12:30:05;7.18;;;4.65;;
37455;SDS011;23316;50.718;7.328;2023-06-24T12:32:33;7.57;;;4.38;;
37455;SDS011;23316;50.718;7.328;2023-06-24T12:35:02;6.28;;;4.43;;
37455;SDS011;23316;50.718;7.328;2023-06-24T12:37:30;5.80;;;4.53;;
37455;SDS011;23316;50.718;7.328;2023-06-24T12:39:58;5.93;;;4.30;;
37455;SDS011;23316;50.718;7.328;2023-06-24T12:42:26;6.85;;;4.47;;
37455;SDS011;23316;50.718;7.328;2023-06-24T12:44:53;5.93;;;4.50;;
37455;SDS011;23316;50.718;7.328;2023-06-24T12:47:21;6.80;;;4.13;;
37455;SDS011;23316;50.718;7.328;2023-06-24T12:49:48;5.63;;;5.03;;
37455;SDS011;23316;50.718;7.328;2023-06-24T12:52:17;6.00;;;4.70;;
37455;SDS011;23316;50.718;7.328;2023-06-24T12:54:44;7.53;;;4.45;;
37455;SDS011;23316;50.718;7.328;2023-06-24T12:57:12;7.18;;;4.50;;
37455;SDS011;23316;50.718;7.328;2023-06-24T12:59:39;6.35;;;4.28;;
37455;SDS011;23316;50.718;7.328;2023-06-24T13:02:06;7.43;;;4.95;;
37455;SDS011;23316;50.718;7.328;2023-06-24T13:04:33;6.78;;;4.43;;
37455;SDS011;23316;50.718;7.328;2023-06-24T13:07:01;6.47;;;4.57;;
37455;SDS011;23316;50.718;7.328;2023-06-24T13:09:30;7.63;;;4.45;;
37455;SDS011;23316;50.718;7.328;2023-06-24T13:11:57;4.43;;;3.95;;
37455;SDS011;23316;50.718;7.328;2023-06-24T13:14:25;5.80;;;4.60;;
37455;SDS011;23316;50.718;7.328;2023-06-24T13:16:54;6.28;;;4.20;;
37455;SDS011;23316;50.718;7.328;2023-06-24T13:19:21;5.07;;;4.10;;
37455;SDS011;23316;50.718;7.328;2023-06-24T13:21:48;8.50;;;4.20;;
37455;SDS011;23316;50.718;7.328;2023-06-24T13:24:15;6.28;;;4.43;;
37455;SDS011;23316;50.718;7.328;2023-06-24T13:26:44;12.52;;;4.55;;
37455;SDS011;23316;50.718;7.328;2023-06-24T13:29:11;5.18;;;3.70;;
37455;SDS011;23316;50.718;7.328;2023-06-24T13:31:38;5.57;;;4.18;;
37455;SDS011;23316;50.718;7.328;2023-06-24T13:34:06;5.72;;;4.25;;
37455;SDS011;23316;50.718;7.328;2023-06-24T13:36:34;4.93;;;3.55;;
37455;SDS011;23316;50.718;7.328;2023-06-24T13:39:03;5.25;;;3.45;;
37455;SDS011;23316;50.718;7.328;2023-06-24T13:41:31;8.02;;;4.75;;
37455;SDS011;23316;50.718;7.328;2023-06-24T13:44:01;8.57;;;5.15;;
37455;SDS011;23316;50.718;7.328;2023-06-24T13:46:30;6.18;;;4.20;;
37455;SDS011;23316;50.718;7.328;2023-06-24T13:48:58;8.02;;;4.65;;
37455;SDS011;23316;50.718;7.328;2023-06-24T13:51:26;6.60;;;4.35;;
37455;SDS011;23316;50.718;7.328;2023-06-24T13:53:53;4.72;;;3.65;;
37455;SDS011;23316;50.718;7.328;2023-06-24T13:56:21;6.45;;;4.05;;
37455;SDS011;23316;50.718;7.328;2023-06-24T13:58:50;12.35;;;4.50;;
37455;SDS011;23316;50.718;7.328;2023-06-24T14:01:19;8.88;;;4.43;;
37455;SDS011;23316;50.718;7.328;2023-06-24T14:03:47;6.57;;;4.43;;
37455;SDS011;23316;50.718;7.328;2023-06-24T14:06:15;6.47;;;4.15;;
37455;SDS011;23316;50.718;7.328;2023-06-24T14:08:46;6.68;;;4.72;;
37455;SDS011;23316;50.718;7.328;2023-06-24T14:11:14;5.85;;;4.55;;
37455;SDS011;23316;50.718;7.328;2023-06-24T14:13:42;5.32;;;4.28;;
37455;SDS011;23316;50.718;7.328;2023-06-24T14:16:11;6.18;;;4.65;;
37455;SDS011;23316;50.718;7.328;2023-06-24T14:18:40;5.70;;;3.90;;
37455;SDS011;23316;50.718;7.328;2023-06-24T14:21:09;8.13;;;4.68;;
37455;SDS011;23316;50.718;7.328;2023-06-24T14:23:36;6.43;;;4.38;;
37455;SDS011;23316;50.718;7.328;2023-06-24T14:26:05;7.28;;;4.60;;
37455;SDS011;23316;50.718;7.328;2023-06-24T14:28:32;6.03;;;4.55;;
37455;SDS011;23316;50.718;7.328;2023-06-24T14:31:00;5.25;;;4.05;;
37455;SDS011;23316;50.718;7.328;2023-06-24T14:33:27;6.43;;;4.13;;
37455;SDS011;23316;50.718;7.328;2023-06-24T14:35:55;4.85;;;4.13;;
37455;SDS011;23316;50.718;7.328;2023-06-24T14:38:23;6.15;;;4.47;;
37455;SDS011;23316;50.718;7.328;2023-06-24T14:40:50;6.97;;;4.43;;
37455;SDS011;23316;50.718;7.328;2023-06-24T14:43:18;5.82;;;4.10;;
37455;SDS011;23316;50.718;7.328;2023-06-24T14:45:45;7.47;;;4.65;;
37455;SDS011;23316;50.718;7.328;2023-06-24T14:48:13;7.57;;;4.80;;
37455;SDS011;23316;50.718;7.328;2023-06-24T14:50:40;9.82;;;4.57;;
37455;SDS011;23316;50.718;7.328;2023-06-24T14:53:10;7.70;;;5.13;;
37455;SDS011;23316;50.718;7.328;2023-06-24T14:55:37;6.93;;;4.40;;
37455;SDS011;23316;50.718;7.328;2023-06-24T14:58:05;6.10;;;4.85;;
37455;SDS011;23316;50.718;7.328;2023-06-24T15:00:33;8.52;;;4.55;;